Natural Bridge, New York
Current Conditions -  °F | °C
As of 11:58 AM on Thursday 30 Oct 2014 (Local Time) from KGTB Reporting Station
Overcast Overcast  
Wind Chill: 39°   Ceiling: 2200
Heat Index: 42°   Visibility: 10mi
Dew Point: 33°   Wind: 5mph
Humidity: 69%   Direction: 350°N
Pressure: 30.02"   Gusts: NA
Location:  44.07°N, 75.49°W
Report Text: KGTB 301558Z AUTO 35004KT 10SM BKN022 OVC027 06/00 A3002 RMK AO2 SLP170 T00560003
Loading
Personal Weather Stations






























Interactive Weather Map
Tropical Storm Tracking
New forecast layout! Learn more

10-Day Weather Forecast

Advertisements
Track Severe Weather on mobile